UAE30V OMDB-OOMS
Flight info
| Callsign | UAE30V |
|---|---|
| Flight time | 0h 39m |
| Altitude | 23000 |
| Route | ANVIX L223 TARDI N629 MUSUK T511 MCT |
| Aircraft | B77W/H-SDE1E2E3FGHIJ2J3J4J5M1RWXY/LB1D1 |
Departure
| Time | 2026-04-22 12:17 |
|---|---|
| Airport | Dubai International Airport (OMDB) |
Arrival
| Time | 2026-04-22 12:56 |
|---|---|
| Airport | Muscat International Airport (OOMS) |
| Time | Latitude | Longitude | Altitude | Speed | Heading |
|---|---|---|---|---|---|
| 2026-04-22 11:29 | 25.24562 | 55.36962 | 27 ft | 0 kts | 167° |
| 2026-04-22 12:06 | 25.24567 | 55.36960 | 28 ft | 4 kts | 167° |
| 2026-04-22 12:06 | 25.24593 | 55.36953 | 25 ft | 4 kts | 167° |
| 2026-04-22 12:06 | 25.24620 | 55.36946 | 25 ft | 4 kts | 167° |
| 2026-04-22 12:07 | 25.24646 | 55.36940 | 25 ft | 4 kts | 167° |
| 2026-04-22 12:07 | 25.24669 | 55.36933 | 24 ft | 4 kts | 148° |
| 2026-04-22 12:07 | 25.24682 | 55.36916 | 25 ft | 4 kts | 76° |
| 2026-04-22 12:07 | 25.24668 | 55.36893 | 25 ft | 4 kts | 37° |
| 2026-04-22 12:08 | 25.24646 | 55.36877 | 25 ft | 4 kts | 31° |
| 2026-04-22 12:08 | 25.24623 | 55.36862 | 25 ft | 4 kts | 31° |
| 2026-04-22 12:08 | 25.24614 | 55.36856 | 26 ft | 0 kts | 31° |
| 2026-04-22 12:11 | 25.24617 | 55.36858 | 26 ft | 2 kts | 31° |
| 2026-04-22 12:11 | 25.24654 | 55.36883 | 27 ft | 8 kts | 31° |
| 2026-04-22 12:11 | 25.24687 | 55.36927 | 27 ft | 8 kts | 79° |
| 2026-04-22 12:12 | 25.24672 | 55.36985 | 29 ft | 8 kts | 116° |
| 2026-04-22 12:12 | 25.24645 | 55.37038 | 27 ft | 8 kts | 121° |
| 2026-04-22 12:12 | 25.24616 | 55.37091 | 27 ft | 9 kts | 121° |
| 2026-04-22 12:12 | 25.24577 | 55.37161 | 27 ft | 13 kts | 121° |
| 2026-04-22 12:13 | 25.24522 | 55.37258 | 27 ft | 17 kts | 122° |
| 2026-04-22 12:13 | 25.24453 | 55.37378 | 27 ft | 19 kts | 122° |
| 2026-04-22 12:13 | 25.24381 | 55.37505 | 27 ft | 19 kts | 121° |
| 2026-04-22 12:13 | 25.24320 | 55.37615 | 27 ft | 15 kts | 122° |
| 2026-04-22 12:14 | 25.24268 | 55.37713 | 27 ft | 15 kts | 111° |
| 2026-04-22 12:14 | 25.24292 | 55.37788 | 27 ft | 10 kts | 40° |
| 2026-04-22 12:14 | 25.24349 | 55.37835 | 27 ft | 10 kts | 34° |
| 2026-04-22 12:14 | 25.24409 | 55.37880 | 27 ft | 10 kts | 34° |
| 2026-04-22 12:15 | 25.24468 | 55.37924 | 26 ft | 10 kts | 35° |
| 2026-04-22 12:15 | 25.24527 | 55.37969 | 27 ft | 10 kts | 34° |
| 2026-04-22 12:15 | 25.24586 | 55.38014 | 27 ft | 10 kts | 33° |
| 2026-04-22 12:15 | 25.24646 | 55.38056 | 27 ft | 10 kts | 31° |
| 2026-04-22 12:16 | 25.24703 | 55.38093 | 25 ft | 8 kts | 27° |
| 2026-04-22 12:16 | 25.24757 | 55.38091 | 27 ft | 8 kts | 329° |
| 2026-04-22 12:16 | 25.24809 | 55.38019 | 27 ft | 21 kts | 303° |
| 2026-04-22 12:16 | 25.24977 | 55.37716 | 27 ft | 82 kts | 302° |
| 2026-04-22 12:17 | 25.25397 | 55.36958 | 27 ft | 147 kts | 302° |
| 2026-04-22 12:17 | 25.26003 | 55.35850 | 217 ft | 177 kts | 302° |
| 2026-04-22 12:17 | 25.26605 | 55.34664 | 873 ft | 178 kts | 307° |
| 2026-04-22 12:17 | 25.27269 | 55.33495 | 1556 ft | 178 kts | 304° |
| 2026-04-22 12:18 | 25.27936 | 55.32323 | 2107 ft | 191 kts | 302° |
| 2026-04-22 12:18 | 25.28691 | 55.30987 | 2352 ft | 218 kts | 301° |
| 2026-04-22 12:18 | 25.29295 | 55.29401 | 2742 ft | 230 kts | 271° |
| 2026-04-22 12:18 | 25.28931 | 55.27739 | 3477 ft | 221 kts | 241° |
| 2026-04-22 12:19 | 25.28212 | 55.26205 | 4109 ft | 225 kts | 243° |
| 2026-04-22 12:19 | 25.27538 | 55.24657 | 4955 ft | 226 kts | 244° |
| 2026-04-22 12:19 | 25.26858 | 55.23080 | 5674 ft | 227 kts | 243° |
| 2026-04-22 12:19 | 25.26174 | 55.21486 | 6375 ft | 231 kts | 243° |
| 2026-04-22 12:20 | 25.25490 | 55.19889 | 6882 ft | 233 kts | 243° |
| 2026-04-22 12:20 | 25.24755 | 55.18276 | 6987 ft | 236 kts | 233° |
| 2026-04-22 12:20 | 25.23507 | 55.17131 | 7018 ft | 237 kts | 204° |
| 2026-04-22 12:20 | 25.21836 | 55.16700 | 7215 ft | 260 kts | 185° |
| 2026-04-22 12:21 | 25.20005 | 55.16835 | 7650 ft | 276 kts | 166° |
| 2026-04-22 12:21 | 25.18308 | 55.17934 | 8238 ft | 292 kts | 136° |
| 2026-04-22 12:21 | 25.17154 | 55.19793 | 8991 ft | 297 kts | 121° |
| 2026-04-22 12:21 | 25.16185 | 55.21840 | 9730 ft | 302 kts | 120° |
| 2026-04-22 12:22 | 25.15537 | 55.23213 | 10189 ft | 307 kts | 120° |
| 2026-04-22 12:22 | 25.14506 | 55.25377 | 10501 ft | 331 kts | 120° |
| 2026-04-22 12:22 | 25.13007 | 55.28515 | 10744 ft | 366 kts | 120° |
| 2026-04-22 12:22 | 25.12184 | 55.30232 | 10926 ft | 382 kts | 120° |
| 2026-04-22 12:23 | 25.10920 | 55.32863 | 11554 ft | 393 kts | 120° |
| 2026-04-22 12:23 | 25.09708 | 55.35592 | 12402 ft | 399 kts | 116° |
| 2026-04-22 12:23 | 25.08575 | 55.38407 | 13334 ft | 404 kts | 116° |
| 2026-04-22 12:23 | 25.07424 | 55.41268 | 14125 ft | 409 kts | 116° |
| 2026-04-22 12:24 | 25.06283 | 55.44167 | 14695 ft | 413 kts | 115° |
| 2026-04-22 12:24 | 25.05180 | 55.47059 | 14752 ft | 416 kts | 114° |
| 2026-04-22 12:24 | 25.04055 | 55.50017 | 14786 ft | 418 kts | 114° |
| 2026-04-22 12:24 | 25.02914 | 55.52991 | 15360 ft | 422 kts | 115° |
| 2026-04-22 12:25 | 25.01748 | 55.55966 | 16063 ft | 423 kts | 117° |
| 2026-04-22 12:25 | 25.00343 | 55.58824 | 16747 ft | 425 kts | 123° |
| 2026-04-22 12:25 | 24.98754 | 55.61608 | 17369 ft | 430 kts | 124° |
| 2026-04-22 12:25 | 24.97160 | 55.64375 | 17977 ft | 435 kts | 123° |
| 2026-04-22 12:26 | 24.95572 | 55.67242 | 18537 ft | 439 kts | 123° |
| 2026-04-22 12:26 | 24.93993 | 55.70144 | 19084 ft | 443 kts | 123° |
| 2026-04-22 12:26 | 24.92268 | 55.72977 | 19581 ft | 447 kts | 128° |
| 2026-04-22 12:26 | 24.90400 | 55.75732 | 20087 ft | 451 kts | 130° |
| 2026-04-22 12:27 | 24.88492 | 55.78489 | 20612 ft | 455 kts | 129° |
| 2026-04-22 12:27 | 24.86582 | 55.81303 | 21100 ft | 461 kts | 129° |
| 2026-04-22 12:27 | 24.84680 | 55.84160 | 21606 ft | 464 kts | 128° |
| 2026-04-22 12:27 | 24.82765 | 55.87040 | 22119 ft | 468 kts | 129° |
| 2026-04-22 12:28 | 24.80820 | 55.89928 | 22563 ft | 472 kts | 129° |
| 2026-04-22 12:28 | 24.78841 | 55.92848 | 22711 ft | 479 kts | 129° |
| 2026-04-22 12:28 | 24.76721 | 55.95653 | 22778 ft | 474 kts | 137° |
| 2026-04-22 12:28 | 24.74335 | 55.98085 | 22781 ft | 471 kts | 142° |
| 2026-04-22 12:29 | 24.71854 | 56.00436 | 22767 ft | 471 kts | 142° |
| 2026-04-22 12:29 | 24.69412 | 56.02847 | 22791 ft | 470 kts | 140° |
| 2026-04-22 12:29 | 24.67019 | 56.05293 | 22769 ft | 470 kts | 140° |
| 2026-04-22 12:29 | 24.64632 | 56.07756 | 22764 ft | 470 kts | 140° |
| 2026-04-22 12:30 | 24.59850 | 56.12662 | 22784 ft | 470 kts | 140° |
| 2026-04-22 12:30 | 24.57496 | 56.15097 | 22791 ft | 471 kts | 138° |
| 2026-04-22 12:30 | 24.55257 | 56.17743 | 22790 ft | 473 kts | 133° |
| 2026-04-22 12:31 | 24.53117 | 56.20501 | 22787 ft | 473 kts | 133° |
| 2026-04-22 12:31 | 24.50980 | 56.23266 | 22777 ft | 474 kts | 133° |
| 2026-04-22 12:31 | 24.48864 | 56.25992 | 22792 ft | 474 kts | 133° |
| 2026-04-22 12:31 | 24.46708 | 56.28753 | 22796 ft | 475 kts | 133° |
| 2026-04-22 12:32 | 24.44551 | 56.31503 | 22759 ft | 475 kts | 133° |
| 2026-04-22 12:32 | 24.40230 | 56.36995 | 22792 ft | 474 kts | 133° |
| 2026-04-22 12:32 | 24.38076 | 56.39729 | 22786 ft | 474 kts | 133° |
| 2026-04-22 12:33 | 24.35946 | 56.42433 | 22792 ft | 474 kts | 133° |
| 2026-04-22 12:33 | 24.33790 | 56.45167 | 22788 ft | 474 kts | 133° |
| 2026-04-22 12:33 | 24.31634 | 56.47901 | 22787 ft | 474 kts | 133° |
| 2026-04-22 12:33 | 24.29492 | 56.50672 | 22782 ft | 475 kts | 130° |
| 2026-04-22 12:34 | 24.27512 | 56.53589 | 22786 ft | 475 kts | 128° |
| 2026-04-22 12:34 | 24.25577 | 56.56529 | 22786 ft | 476 kts | 128° |
| 2026-04-22 12:34 | 24.23645 | 56.59478 | 22781 ft | 476 kts | 128° |
| 2026-04-22 12:34 | 24.21710 | 56.62421 | 22794 ft | 476 kts | 128° |
| 2026-04-22 12:35 | 24.19788 | 56.65332 | 22791 ft | 476 kts | 128° |
| 2026-04-22 12:35 | 24.17841 | 56.68268 | 22787 ft | 476 kts | 128° |
| 2026-04-22 12:35 | 24.15894 | 56.71197 | 22792 ft | 476 kts | 128° |
| 2026-04-22 12:35 | 24.13945 | 56.74124 | 22804 ft | 476 kts | 128° |
| 2026-04-22 12:36 | 24.11995 | 56.77053 | 22807 ft | 476 kts | 128° |
| 2026-04-22 12:36 | 24.10043 | 56.79983 | 22799 ft | 476 kts | 128° |
| 2026-04-22 12:36 | 24.08091 | 56.82913 | 22811 ft | 476 kts | 128° |
| 2026-04-22 12:36 | 24.06141 | 56.85839 | 22795 ft | 476 kts | 128° |
| 2026-04-22 12:37 | 24.04189 | 56.88764 | 22802 ft | 475 kts | 128° |
| 2026-04-22 12:37 | 24.02256 | 56.91652 | 22809 ft | 475 kts | 128° |
| 2026-04-22 12:37 | 24.00297 | 56.94564 | 22807 ft | 475 kts | 128° |
| 2026-04-22 12:37 | 23.98336 | 56.97477 | 22810 ft | 475 kts | 128° |
| 2026-04-22 12:38 | 23.96389 | 57.00370 | 22795 ft | 466 kts | 128° |
| 2026-04-22 12:38 | 23.94498 | 57.03183 | 22711 ft | 456 kts | 129° |
| 2026-04-22 12:38 | 23.92581 | 57.06028 | 22199 ft | 469 kts | 128° |
| 2026-04-22 12:38 | 23.90650 | 57.08893 | 21729 ft | 467 kts | 128° |
| 2026-04-22 12:39 | 23.88740 | 57.11729 | 21294 ft | 459 kts | 128° |
| 2026-04-22 12:39 | 23.85048 | 57.17226 | 20587 ft | 441 kts | 128° |
| 2026-04-22 12:39 | 23.83303 | 57.19950 | 20274 ft | 432 kts | 122° |
| 2026-04-22 12:40 | 23.82004 | 57.22812 | 20202 ft | 419 kts | 112° |
| 2026-04-22 12:40 | 23.81197 | 57.25819 | 20113 ft | 407 kts | 102° |
| 2026-04-22 12:40 | 23.80772 | 57.28830 | 20021 ft | 394 kts | 97° |
| 2026-04-22 12:40 | 23.80553 | 57.31774 | 19884 ft | 384 kts | 92° |
| 2026-04-22 12:41 | 23.80629 | 57.34668 | 19641 ft | 377 kts | 84° |
| 2026-04-22 12:41 | 23.80957 | 57.37497 | 19332 ft | 373 kts | 82° |
| 2026-04-22 12:41 | 23.81380 | 57.40279 | 18975 ft | 370 kts | 79° |
| 2026-04-22 12:41 | 23.81921 | 57.43026 | 18591 ft | 369 kts | 77° |
| 2026-04-22 12:42 | 23.82491 | 57.45748 | 18239 ft | 367 kts | 77° |
| 2026-04-22 12:42 | 23.83046 | 57.48417 | 17872 ft | 360 kts | 78° |
| 2026-04-22 12:42 | 23.83587 | 57.51079 | 17196 ft | 356 kts | 78° |
| 2026-04-22 12:42 | 23.84111 | 57.53709 | 16547 ft | 353 kts | 78° |
| 2026-04-22 12:43 | 23.84627 | 57.56330 | 15831 ft | 352 kts | 78° |
| 2026-04-22 12:43 | 23.85136 | 57.58942 | 15197 ft | 349 kts | 78° |
| 2026-04-22 12:43 | 23.85637 | 57.61516 | 14621 ft | 344 kts | 77° |
| 2026-04-22 12:43 | 23.86127 | 57.64037 | 13996 ft | 342 kts | 77° |
| 2026-04-22 12:44 | 23.86617 | 57.66562 | 13461 ft | 336 kts | 77° |
| 2026-04-22 12:44 | 23.87101 | 57.69056 | 12826 ft | 333 kts | 77° |
| 2026-04-22 12:44 | 23.87558 | 57.71549 | 12135 ft | 332 kts | 83° |
| 2026-04-22 12:44 | 23.87381 | 57.74031 | 11549 ft | 327 kts | 109° |
| 2026-04-22 12:45 | 23.86328 | 57.76164 | 10973 ft | 320 kts | 130° |
| 2026-04-22 12:45 | 23.84703 | 57.77808 | 10344 ft | 316 kts | 147° |
| 2026-04-22 12:45 | 23.82888 | 57.79130 | 9911 ft | 308 kts | 149° |
| 2026-04-22 12:45 | 23.81111 | 57.80380 | 9531 ft | 302 kts | 150° |
| 2026-04-22 12:46 | 23.79358 | 57.81612 | 9334 ft | 295 kts | 150° |
| 2026-04-22 12:46 | 23.77673 | 57.82807 | 9105 ft | 290 kts | 150° |
| 2026-04-22 12:46 | 23.75993 | 57.84007 | 8832 ft | 287 kts | 149° |
| 2026-04-22 12:46 | 23.74329 | 57.85200 | 8565 ft | 284 kts | 149° |
| 2026-04-22 12:47 | 23.72677 | 57.86390 | 8222 ft | 284 kts | 148° |
| 2026-04-22 12:47 | 23.71046 | 57.87567 | 7935 ft | 282 kts | 148° |
| 2026-04-22 12:47 | 23.69419 | 57.88740 | 7729 ft | 277 kts | 148° |
| 2026-04-22 12:47 | 23.67839 | 57.89876 | 7617 ft | 265 kts | 151° |
| 2026-04-22 12:48 | 23.66176 | 57.90516 | 7529 ft | 244 kts | 179° |
| 2026-04-22 12:48 | 23.64521 | 57.90450 | 7511 ft | 240 kts | 186° |
| 2026-04-22 12:48 | 23.62778 | 57.90317 | 7181 ft | 258 kts | 186° |
| 2026-04-22 12:48 | 23.60973 | 57.90208 | 6823 ft | 259 kts | 180° |
| 2026-04-22 12:49 | 23.59246 | 57.90709 | 6493 ft | 261 kts | 150° |
| 2026-04-22 12:49 | 23.57973 | 57.92077 | 6185 ft | 264 kts | 121° |
| 2026-04-22 12:49 | 23.57386 | 57.93960 | 5843 ft | 264 kts | 97° |
| 2026-04-22 12:49 | 23.57280 | 57.95945 | 5526 ft | 261 kts | 94° |
| 2026-04-22 12:50 | 23.57175 | 57.97919 | 5223 ft | 260 kts | 94° |
| 2026-04-22 12:50 | 23.57097 | 57.99889 | 4897 ft | 260 kts | 90° |
| 2026-04-22 12:50 | 23.57171 | 58.01861 | 4597 ft | 260 kts | 86° |
| 2026-04-22 12:50 | 23.57322 | 58.03793 | 4244 ft | 256 kts | 85° |
| 2026-04-22 12:51 | 23.57481 | 58.05696 | 3913 ft | 247 kts | 85° |
| 2026-04-22 12:51 | 23.57630 | 58.07517 | 3602 ft | 234 kts | 85° |
| 2026-04-22 12:51 | 23.57768 | 58.09233 | 3308 ft | 219 kts | 85° |
| 2026-04-22 12:51 | 23.57895 | 58.10822 | 3124 ft | 199 kts | 85° |
| 2026-04-22 12:52 | 23.58010 | 58.12254 | 2972 ft | 187 kts | 85° |
| 2026-04-22 12:52 | 23.58118 | 58.13619 | 2570 ft | 172 kts | 85° |
| 2026-04-22 12:52 | 23.58217 | 58.14835 | 2351 ft | 151 kts | 85° |
| 2026-04-22 12:52 | 23.58302 | 58.15919 | 2176 ft | 144 kts | 85° |
| 2026-04-22 12:53 | 23.58394 | 58.17048 | 1958 ft | 147 kts | 85° |
| 2026-04-22 12:53 | 23.58481 | 58.18140 | 1750 ft | 143 kts | 84° |
| 2026-04-22 12:53 | 23.58569 | 58.19219 | 1554 ft | 142 kts | 85° |
| 2026-04-22 12:53 | 23.58652 | 58.20281 | 1364 ft | 141 kts | 86° |
| 2026-04-22 12:54 | 23.58739 | 58.21348 | 1162 ft | 138 kts | 86° |
| 2026-04-22 12:54 | 23.58821 | 58.22373 | 957 ft | 134 kts | 86° |
| 2026-04-22 12:54 | 23.58901 | 58.23390 | 806 ft | 138 kts | 87° |
| 2026-04-22 12:54 | 23.58983 | 58.24418 | 614 ft | 135 kts | 83° |
| 2026-04-22 12:55 | 23.59067 | 58.25435 | 404 ft | 139 kts | 85° |
| 2026-04-22 12:55 | 23.59147 | 58.26480 | 237 ft | 136 kts | 82° |
| 2026-04-22 12:55 | 23.59233 | 58.27497 | 49 ft | 132 kts | 83° |
| 2026-04-22 12:55 | 23.59301 | 58.28380 | 49 ft | 97 kts | 85° |
| 2026-04-22 12:56 | 23.59353 | 58.28931 | 48 ft | 64 kts | 84° |
| 2026-04-22 12:56 | 23.59392 | 58.29396 | 50 ft | 57 kts | 85° |
| 2026-04-22 12:56 | 23.59399 | 58.29616 | 49 ft | 12 kts | 110° |
| 2026-04-22 12:56 | 23.59329 | 58.29658 | 49 ft | 12 kts | 168° |
| 2026-04-22 12:57 | 23.59245 | 58.29666 | 49 ft | 12 kts | 185° |
| 2026-04-22 12:57 | 23.59201 | 58.29594 | 49 ft | 13 kts | 258° |
| 2026-04-22 12:57 | 23.59192 | 58.29499 | 49 ft | 13 kts | 265° |
| 2026-04-22 12:57 | 23.59185 | 58.29402 | 49 ft | 13 kts | 265° |
| 2026-04-22 12:58 | 23.59175 | 58.29305 | 49 ft | 13 kts | 263° |
| 2026-04-22 12:58 | 23.59166 | 58.29209 | 49 ft | 13 kts | 265° |
| 2026-04-22 12:58 | 23.59165 | 58.29112 | 49 ft | 13 kts | 289° |
| 2026-04-22 12:58 | 23.59245 | 58.29078 | 48 ft | 13 kts | 353° |
| 2026-04-22 12:59 | 23.59337 | 58.29061 | 48 ft | 13 kts | 333° |
| 2026-04-22 12:59 | 23.59353 | 58.28966 | 48 ft | 14 kts | 271° |
| 2026-04-22 12:59 | 23.59352 | 58.28863 | 48 ft | 14 kts | 266° |
| 2026-04-22 12:59 | 23.59354 | 58.28760 | 48 ft | 14 kts | 282° |
| 2026-04-22 13:00 | 23.59385 | 58.28661 | 48 ft | 14 kts | 290° |
| 2026-04-22 13:00 | 23.59428 | 58.28566 | 48 ft | 14 kts | 307° |
| 2026-04-22 13:00 | 23.59515 | 58.28527 | 49 ft | 14 kts | 359° |
| 2026-04-22 13:00 | 23.59613 | 58.28523 | 49 ft | 14 kts | 358° |
| 2026-04-22 13:01 | 23.59710 | 58.28511 | 49 ft | 14 kts | 353° |
| 2026-04-22 13:01 | 23.59807 | 58.28501 | 49 ft | 14 kts | 355° |
| 2026-04-22 13:01 | 23.59879 | 58.28496 | 49 ft | 8 kts | 3° |
| 2026-04-22 13:01 | 23.59928 | 58.28519 | 49 ft | 8 kts | 32° |
| 2026-04-22 13:02 | 23.59951 | 58.28538 | 49 ft | 2 kts | 37° |
| 2026-04-22 13:02 | 23.59964 | 58.28548 | 47 ft | 2 kts | 38° |
| 2026-04-22 13:02 | 23.59973 | 58.28557 | 49 ft | 0 kts | 39° |